No 32takemaru — JG5746 — position and weather

sailwx.info

Track history (hours):
 
Tides and Currents Weather Stations Pressure Air Temp Water Temp Dewpoint Dewpoint Depression Visibility Wind Speed Wind Dir Waves Ship Positions

No 32takemaru

Last reported at 2018-Nov-10 22:20 UTC. Time now 2018-Nov-19 15:18 UTC.
Position N 34°40' E 135°14'.
Warning: this ship's position is 8 days out of date.

Length 38 m; draft 2.8 m.

Type: Tug. MMSI: 431000341.

Date/timePositionNaut miles runAvg speedWind from/ knotsBaromVisibWave heightAir tempDewpointWater temp
2018-Nov-10 22:20N 34°40' E 135°14'0 0.2
2018-Nov-10 21:31N 34°40' E 135°14'1 0.9
2018-Nov-10 19:55N 34°41' E 135°16'11 0.9
2018-Nov-10 07:17N 34°31' E 135°23'1 0.2
2018-Nov-10 00:48N 34°31' E 135°24'0 0.0
2018-Nov-10 00:30N 34°31' E 135°24'8 0.5
2018-Nov-09 07:39N 34°39' E 135°28'1 9.4
2018-Nov-09 07:33N 34°39' E 135°26'4 8.3
2018-Nov-09 07:02N 34°35' E 135°24'2 1.1
2018-Nov-09 05:31N 34°33' E 135°24'2 5.0
2018-Nov-09 05:02N 34°33' E 135°21'1 1.1
2018-Nov-09 04:29N 34°33' E 135°21'3 6.5
2018-Nov-09 03:57N 34°31' E 135°24'0 0.1
2018-Nov-08 23:31N 34°31' E 135°24'0 0.4
2018-Nov-08 22:36N 34°32' E 135°24'110.8
2018-Nov-08 22:32N 34°32' E 135°24'1 2.5
2018-Nov-08 22:02N 34°33' E 135°25'4 7.5
2018-Nov-08 21:30N 34°36' E 135°23'4 7.9
2018-Nov-08 21:03N 34°39' E 135°26'1 0.6
2018-Nov-08 18:45N 34°39' E 135°28'0 0.0
2018-Nov-08 17:29N 34°39' E 135°28'0 0.0
2018-Nov-08 16:55N 34°39' E 135°28'0 0.0
2018-Nov-08 16:32N 34°39' E 135°28'0 0.0
2018-Nov-08 12:02N 34°39' E 135°28'0 0.0
2018-Nov-08 11:25N 34°39' E 135°28'0 0.0
2018-Nov-08 10:52N 34°39' E 135°28'0 0.0
2018-Nov-08 10:32N 34°39' E 135°28'0 0.0
2018-Nov-08 09:57N 34°39' E 135°28'0 0.0
2018-Nov-08 09:13N 34°39' E 135°28'0 0.0
2018-Nov-08 09:00N 34°39' E 135°28'0 0.0
2018-Nov-08 08:24N 34°39' E 135°28'3 7.9
2018-Nov-08 08:02N 34°39' E 135°25'510.8
2018-Nov-08 07:32N 34°33' E 135°23'3 5.4
2018-Nov-08 07:02N 34°31' E 135°23'1 0.9
2018-Nov-08 05:54N 34°31' E 135°24'0 0.0
2018-Nov-08 05:18N 34°31' E 135°24'0 0.0
2018-Nov-08 04:19N 34°31' E 135°24'0 0.0
2018-Nov-08 01:38N 34°31' E 135°24'0 0.0
2018-Nov-08 01:02N 34°31' E 135°24'3 4.4
2018-Nov-08 00:26N 34°33' E 135°26'0 0.3
2018-Nov-08 00:02N 34°33' E 135°26'0 0.5
2018-Nov-07 23:09N 34°34' E 135°25'0 0.4
2018-Nov-07 22:59N 34°33' E 135°25'2 5.3
2018-Nov-07 22:32N 34°32' E 135°23'0 0.8
2018-Nov-07 22:01N 34°31' E 135°23'1 2.7
2018-Nov-07 21:32N 34°33' E 135°23'2 3.1
2018-Nov-07 21:03N 34°34' E 135°23'4 8.6
2018-Nov-07 20:32N 34°38' E 135°24'3 5.9
2018-Nov-07 20:00N 34°39' E 135°28'0 0.0
2018-Nov-07 19:21N 34°39' E 135°28'0 0.0
2018-Nov-07 17:29N 34°39' E 135°28'0 0.0
2018-Nov-07 16:36N 34°39' E 135°28'0 0.0
2018-Nov-07 16:22N 34°39' E 135°28'0 0.0
2018-Nov-07 15:34N 34°39' E 135°28'0 0.0
2018-Nov-07 12:38N 34°39' E 135°28'0 0.0
2018-Nov-06 23:18N 34°39' E 135°28'2 9.7
2018-Nov-06 23:03N 34°39' E 135°25'110.7
2018-Nov-06 23:00N 34°39' E 135°24'8 7.8
2018-Nov-06 22:00N 34°31' E 135°23'2 2.9
2018-Nov-06 21:25N 34°32' E 135°23'2 5.8
2018-Nov-06 21:03N 34°34' E 135°23'1 8.3
2018-Nov-06 20:59N 34°35' E 135°23'4 7.6
2018-Nov-06 20:31N 34°38' E 135°24'3 0.7
2018-Nov-06 15:50N 34°39' E 135°28'0 0.0
2018-Nov-06 15:24N 34°39' E 135°28'0 0.0
2018-Nov-06 14:56N 34°39' E 135°28'0 0.0
2018-Nov-06 14:16N 34°39' E 135°28'0 0.0
2018-Nov-06 06:51N 34°39' E 135°28'0 0.0
2018-Nov-06 00:44N 34°39' E 135°28'12 9.9
2018-Nov-05 23:29N 34°28' E 135°20'3 6.2
2018-Nov-05 23:03N 34°26' E 135°19'0 0.2
2018-Nov-05 22:59N 34°26' E 135°19'1 1.7
2018-Nov-05 22:22N 34°27' E 135°19'0 0.2
2018-Nov-05 22:01N 34°27' E 135°19'0 0.2
2018-Nov-05 21:59N 34°27' E 135°19'4 8.3
2018-Nov-05 21:30N 34°31' E 135°20'510.6
2018-Nov-05 21:03N 34°35' E 135°22'010.5
2018-Nov-05 21:01N 34°36' E 135°22'5 9.6
2018-Nov-05 20:30N 34°39' E 135°27'1 0.1
2018-Nov-05 08:11N 34°39' E 135°28'0 0.0
2018-Nov-05 07:36N 34°39' E 135°28'0 0.3
2018-Nov-05 07:24N 34°39' E 135°28'410.1
2018-Nov-05 07:03N 34°38' E 135°24'111.9
2018-Nov-05 07:00N 34°38' E 135°23'611.5
2018-Nov-05 06:30N 34°32' E 135°24'0 0.3
2018-Nov-05 06:03N 34°32' E 135°24'0 2.2
2018-Nov-05 06:00N 34°32' E 135°24'0 0.4
2018-Nov-05 05:29N 34°32' E 135°24'0 0.4
2018-Nov-05 04:24N 34°31' E 135°24'0 0.0
2018-Nov-05 03:13N 34°31' E 135°24'0 0.0
2018-Nov-05 01:15N 34°31' E 135°24'0 0.0
2018-Nov-05 00:33N 34°31' E 135°24'0 0.1
2018-Nov-04 22:28N 34°32' E 135°24'1 1.9
2018-Nov-04 22:03N 34°32' E 135°24'0 6.6
2018-Nov-04 22:00N 34°33' E 135°24'1 1.2
2018-Nov-04 21:29N 34°33' E 135°23'3 6.5
2018-Nov-04 21:04N 34°36' E 135°23'0 9.7
2018-Nov-04 21:01N 34°36' E 135°23'4 7.7
2018-Nov-04 20:31N 34°39' E 135°27'1 1.2
2018-Nov-04 19:48N 34°39' E 135°28'0 0.0
2018-Nov-04 19:06N 34°39' E 135°28'0 0.0
2018-Nov-04 19:03N 34°39' E 135°28'0 0.0
2018-Nov-04 18:51N 34°39' E 135°28'0 0.0
2018-Nov-04 18:27N 34°39' E 135°28'0 0.0
2018-Nov-04 17:58N 34°39' E 135°28'0 0.0
2018-Nov-04 17:24N 34°39' E 135°28'0 0.0
2018-Nov-04 17:00N 34°39' E 135°28'0 0.0
2018-Nov-04 16:21N 34°39' E 135°28'0 0.0
2018-Nov-04 14:09N 34°39' E 135°28'0 0.0
2018-Nov-04 13:57N 34°39' E 135°28'0 0.0
2018-Nov-04 12:47N 34°39' E 135°28'0 0.0
2018-Nov-04 12:13N 34°39' E 135°28'0 0.0
2018-Nov-04 11:59N 34°39' E 135°28'0 0.0
2018-Nov-04 11:20N 34°39' E 135°28'0 0.0
2018-Nov-04 10:54N 34°39' E 135°28'0 0.0
2018-Nov-04 10:27N 34°39' E 135°28'0 0.0
2018-Nov-04 09:48N 34°39' E 135°28'0 0.0
2018-Nov-04 09:29N 34°39' E 135°28'0 0.0
2018-Nov-04 09:03N 34°39' E 135°28'0 0.0
2018-Nov-04 08:57N 34°39' E 135°28'0 0.0
2018-Nov-04 08:26N 34°39' E 135°28'0 0.1
2018-Nov-04 06:03N 34°39' E 135°28'0 7.9
2018-Nov-04 06:00N 34°39' E 135°27'5 9.3
2018-Nov-04 05:30N 34°36' E 135°23'3 5.8
2018-Nov-04 05:03N 34°34' E 135°24'0 0.4
2018-Nov-04 04:22N 34°34' E 135°24'1 2.0
2018-Nov-04 04:01N 34°34' E 135°24'0 0.0
2018-Nov-04 04:00N 34°34' E 135°24'0 0.2
2018-Nov-04 03:26N 34°34' E 135°24'1 2.6
2018-Nov-04 03:03N 34°33' E 135°25'110.6
2018-Nov-04 02:57N 34°33' E 135°26'1 1.3
2018-Nov-04 02:30N 34°33' E 135°25'2 4.7
2018-Nov-04 02:03N 34°34' E 135°23'0 1.2
2018-Nov-04 01:59N 34°34' E 135°23'3 0.9
2018-Nov-03 22:34N 34°31' E 135°24'110.2
2018-Nov-03 22:30N 34°31' E 135°23'9 4.3
2018-Nov-03 20:29N 34°39' E 135°27'1 0.7
2018-Nov-03 19:22N 34°39' E 135°28'0 0.0
2018-Nov-03 11:43N 34°39' E 135°28'0 0.0
2018-Nov-03 11:29N 34°39' E 135°28'0 0.0
2018-Nov-03 10:22N 34°39' E 135°28'0 0.0
2018-Nov-03 10:03N 34°39' E 135°28'0 0.0
2018-Nov-03 09:54N 34°39' E 135°28'0 0.0
2018-Nov-03 09:19N 34°39' E 135°28'0 0.0
2018-Nov-03 08:53N 34°39' E 135°28'0 0.0
2018-Nov-03 08:23N 34°39' E 135°28'0 0.0
2018-Nov-02 21:47N 34°39' E 135°28'0 0.0
2018-Nov-02 21:20N 34°39' E 135°28'0 0.0
2018-Nov-02 19:20N 34°39' E 135°28'0 0.0
2018-Nov-02 18:55N 34°39' E 135°28'0 0.0
2018-Nov-02 17:13N 34°39' E 135°28'0 0.0
2018-Nov-02 16:59N 34°39' E 135°28'0 0.0
2018-Nov-02 16:28N 34°39' E 135°28'0 0.0
2018-Nov-02 16:00N 34°39' E 135°28'0 0.0
2018-Nov-02 15:24N 34°39' E 135°28'0 0.0
2018-Oct-31 23:57N 34°39' E 135°28'  
Track history (hours):
 
Tides and Currents Weather Stations Pressure Air Temp Water Temp Dewpoint Dewpoint Depression Visibility Wind Speed Wind Dir Waves Ship Positions

No 32takemaru

Last reported at 2018-Nov-10 22:20 UTC. Time now 2018-Nov-19 15:18 UTC.
Position N 34°40' E 135°14'.
Warning: this ship's position is 8 days out of date.

Length 38 m; draft 2.8 m.

Type: Tug. MMSI: 431000341.

Date/timePositionNaut miles runAvg speedWind from/ knotsBaromVisibWave heightAir tempDewpointWater temp
2018-Nov-10 22:20N 34°40' E 135°14'0 0.2
2018-Nov-10 21:31N 34°40' E 135°14'1 0.9
2018-Nov-10 19:55N 34°41' E 135°16'11 0.9
2018-Nov-10 07:17N 34°31' E 135°23'1 0.2
2018-Nov-10 00:48N 34°31' E 135°24'0 0.0
2018-Nov-10 00:30N 34°31' E 135°24'8 0.5
2018-Nov-09 07:39N 34°39' E 135°28'1 9.4
2018-Nov-09 07:33N 34°39' E 135°26'4 8.3
2018-Nov-09 07:02N 34°35' E 135°24'2 1.1
2018-Nov-09 05:31N 34°33' E 135°24'2 5.0
2018-Nov-09 05:02N 34°33' E 135°21'1 1.1
2018-Nov-09 04:29N 34°33' E 135°21'3 6.5
2018-Nov-09 03:57N 34°31' E 135°24'0 0.1
2018-Nov-08 23:31N 34°31' E 135°24'0 0.4
2018-Nov-08 22:36N 34°32' E 135°24'110.8
2018-Nov-08 22:32N 34°32' E 135°24'1 2.5
2018-Nov-08 22:02N 34°33' E 135°25'4 7.5
2018-Nov-08 21:30N 34°36' E 135°23'4 7.9
2018-Nov-08 21:03N 34°39' E 135°26'1 0.6
2018-Nov-08 18:45N 34°39' E 135°28'0 0.0
2018-Nov-08 17:29N 34°39' E 135°28'0 0.0
2018-Nov-08 16:55N 34°39' E 135°28'0 0.0
2018-Nov-08 16:32N 34°39' E 135°28'0 0.0
2018-Nov-08 12:02N 34°39' E 135°28'0 0.0
2018-Nov-08 11:25N 34°39' E 135°28'0 0.0
2018-Nov-08 10:52N 34°39' E 135°28'0 0.0
2018-Nov-08 10:32N 34°39' E 135°28'0 0.0
2018-Nov-08 09:57N 34°39' E 135°28'0 0.0
2018-Nov-08 09:13N 34°39' E 135°28'0 0.0
2018-Nov-08 09:00N 34°39' E 135°28'0 0.0
2018-Nov-08 08:24N 34°39' E 135°28'3 7.9
2018-Nov-08 08:02N 34°39' E 135°25'510.8
2018-Nov-08 07:32N 34°33' E 135°23'3 5.4
2018-Nov-08 07:02N 34°31' E 135°23'1 0.9
2018-Nov-08 05:54N 34°31' E 135°24'0 0.0
2018-Nov-08 05:18N 34°31' E 135°24'0 0.0
2018-Nov-08 04:19N 34°31' E 135°24'0 0.0
2018-Nov-08 01:38N 34°31' E 135°24'0 0.0
2018-Nov-08 01:02N 34°31' E 135°24'3 4.4
2018-Nov-08 00:26N 34°33' E 135°26'0 0.3
2018-Nov-08 00:02N 34°33' E 135°26'0 0.5
2018-Nov-07 23:09N 34°34' E 135°25'0 0.4
2018-Nov-07 22:59N 34°33' E 135°25'2 5.3
2018-Nov-07 22:32N 34°32' E 135°23'0 0.8
2018-Nov-07 22:01N 34°31' E 135°23'1 2.7
2018-Nov-07 21:32N 34°33' E 135°23'2 3.1
2018-Nov-07 21:03N 34°34' E 135°23'4 8.6
2018-Nov-07 20:32N 34°38' E 135°24'3 5.9
2018-Nov-07 20:00N 34°39' E 135°28'0 0.0
2018-Nov-07 19:21N 34°39' E 135°28'0 0.0
2018-Nov-07 17:29N 34°39' E 135°28'0 0.0
2018-Nov-07 16:36N 34°39' E 135°28'0 0.0
2018-Nov-07 16:22N 34°39' E 135°28'0 0.0
2018-Nov-07 15:34N 34°39' E 135°28'0 0.0
2018-Nov-07 12:38N 34°39' E 135°28'0 0.0
2018-Nov-06 23:18N 34°39' E 135°28'2 9.7
2018-Nov-06 23:03N 34°39' E 135°25'110.7
2018-Nov-06 23:00N 34°39' E 135°24'8 7.8
2018-Nov-06 22:00N 34°31' E 135°23'2 2.9
2018-Nov-06 21:25N 34°32' E 135°23'2 5.8
2018-Nov-06 21:03N 34°34' E 135°23'1 8.3
2018-Nov-06 20:59N 34°35' E 135°23'4 7.6
2018-Nov-06 20:31N 34°38' E 135°24'3 0.7
2018-Nov-06 15:50N 34°39' E 135°28'0 0.0
2018-Nov-06 15:24N 34°39' E 135°28'0 0.0
2018-Nov-06 14:56N 34°39' E 135°28'0 0.0
2018-Nov-06 14:16N 34°39' E 135°28'0 0.0
2018-Nov-06 06:51N 34°39' E 135°28'0 0.0
2018-Nov-06 00:44N 34°39' E 135°28'12 9.9
2018-Nov-05 23:29N 34°28' E 135°20'3 6.2
2018-Nov-05 23:03N 34°26' E 135°19'0 0.2
2018-Nov-05 22:59N 34°26' E 135°19'1 1.7
2018-Nov-05 22:22N 34°27' E 135°19'0 0.2
2018-Nov-05 22:01N 34°27' E 135°19'0 0.2
2018-Nov-05 21:59N 34°27' E 135°19'4 8.3
2018-Nov-05 21:30N 34°31' E 135°20'510.6
2018-Nov-05 21:03N 34°35' E 135°22'010.5
2018-Nov-05 21:01N 34°36' E 135°22'5 9.6
2018-Nov-05 20:30N 34°39' E 135°27'1 0.1
2018-Nov-05 08:11N 34°39' E 135°28'0 0.0
2018-Nov-05 07:36N 34°39' E 135°28'0 0.3
2018-Nov-05 07:24N 34°39' E 135°28'410.1
2018-Nov-05 07:03N 34°38' E 135°24'111.9
2018-Nov-05 07:00N 34°38' E 135°23'611.5
2018-Nov-05 06:30N 34°32' E 135°24'0 0.3
2018-Nov-05 06:03N 34°32' E 135°24'0 2.2
2018-Nov-05 06:00N 34°32' E 135°24'0 0.4
2018-Nov-05 05:29N 34°32' E 135°24'0 0.4
2018-Nov-05 04:24N 34°31' E 135°24'0 0.0
2018-Nov-05 03:13N 34°31' E 135°24'0 0.0
2018-Nov-05 01:15N 34°31' E 135°24'0 0.0
2018-Nov-05 00:33N 34°31' E 135°24'0 0.1
2018-Nov-04 22:28N 34°32' E 135°24'1 1.9
2018-Nov-04 22:03N 34°32' E 135°24'0 6.6
2018-Nov-04 22:00N 34°33' E 135°24'1 1.2
2018-Nov-04 21:29N 34°33' E 135°23'3 6.5
2018-Nov-04 21:04N 34°36' E 135°23'0 9.7
2018-Nov-04 21:01N 34°36' E 135°23'4 7.7
2018-Nov-04 20:31N 34°39' E 135°27'1 1.2
2018-Nov-04 19:48N 34°39' E 135°28'0 0.0
2018-Nov-04 19:06N 34°39' E 135°28'0 0.0
2018-Nov-04 19:03N 34°39' E 135°28'0 0.0
2018-Nov-04 18:51N 34°39' E 135°28'0 0.0
2018-Nov-04 18:27N 34°39' E 135°28'0 0.0
2018-Nov-04 17:58N 34°39' E 135°28'0 0.0
2018-Nov-04 17:24N 34°39' E 135°28'0 0.0
2018-Nov-04 17:00N 34°39' E 135°28'0 0.0
2018-Nov-04 16:21N 34°39' E 135°28'0 0.0
2018-Nov-04 14:09N 34°39' E 135°28'0 0.0
2018-Nov-04 13:57N 34°39' E 135°28'0 0.0
2018-Nov-04 12:47N 34°39' E 135°28'0 0.0
2018-Nov-04 12:13N 34°39' E 135°28'0 0.0
2018-Nov-04 11:59N 34°39' E 135°28'0 0.0
2018-Nov-04 11:20N 34°39' E 135°28'0 0.0
2018-Nov-04 10:54N 34°39' E 135°28'0 0.0
2018-Nov-04 10:27N 34°39' E 135°28'0 0.0
2018-Nov-04 09:48N 34°39' E 135°28'0 0.0
2018-Nov-04 09:29N 34°39' E 135°28'0 0.0
2018-Nov-04 09:03N 34°39' E 135°28'0 0.0
2018-Nov-04 08:57N 34°39' E 135°28'0 0.0
2018-Nov-04 08:26N 34°39' E 135°28'0 0.1
2018-Nov-04 06:03N 34°39' E 135°28'0 7.9
2018-Nov-04 06:00N 34°39' E 135°27'5 9.3
2018-Nov-04 05:30N 34°36' E 135°23'3 5.8
2018-Nov-04 05:03N 34°34' E 135°24'0 0.4
2018-Nov-04 04:22N 34°34' E 135°24'1 2.0
2018-Nov-04 04:01N 34°34' E 135°24'0 0.0
2018-Nov-04 04:00N 34°34' E 135°24'0 0.2
2018-Nov-04 03:26N 34°34' E 135°24'1 2.6
2018-Nov-04 03:03N 34°33' E 135°25'110.6
2018-Nov-04 02:57N 34°33' E 135°26'1 1.3
2018-Nov-04 02:30N 34°33' E 135°25'2 4.7
2018-Nov-04 02:03N 34°34' E 135°23'0 1.2
2018-Nov-04 01:59N 34°34' E 135°23'3 0.9
2018-Nov-03 22:34N 34°31' E 135°24'110.2
2018-Nov-03 22:30N 34°31' E 135°23'9 4.3
2018-Nov-03 20:29N 34°39' E 135°27'1 0.7
2018-Nov-03 19:22N 34°39' E 135°28'0 0.0
2018-Nov-03 11:43N 34°39' E 135°28'0 0.0
2018-Nov-03 11:29N 34°39' E 135°28'0 0.0
2018-Nov-03 10:22N 34°39' E 135°28'0 0.0
2018-Nov-03 10:03N 34°39' E 135°28'0 0.0
2018-Nov-03 09:54N 34°39' E 135°28'0 0.0
2018-Nov-03 09:19N 34°39' E 135°28'0 0.0
2018-Nov-03 08:53N 34°39' E 135°28'0 0.0
2018-Nov-03 08:23N 34°39' E 135°28'0 0.0
2018-Nov-02 21:47N 34°39' E 135°28'0 0.0
2018-Nov-02 21:20N 34°39' E 135°28'0 0.0
2018-Nov-02 19:20N 34°39' E 135°28'0 0.0
2018-Nov-02 18:55N 34°39' E 135°28'0 0.0
2018-Nov-02 17:13N 34°39' E 135°28'0 0.0
2018-Nov-02 16:59N 34°39' E 135°28'0 0.0
2018-Nov-02 16:28N 34°39' E 135°28'0 0.0
2018-Nov-02 16:00N 34°39' E 135°28'0 0.0
2018-Nov-02 15:24N 34°39' E 135°28'0 0.0
2018-Oct-31 23:57N 34°39' E 135°28'  

Dump ship's entire track history